sensor_id;sensor_type;location;lat;lon;timestamp;P1;durP1;ratioP1;P2;durP2;ratioP2
23280;SDS011;11809;56.390;-3.266;2023-04-03T00:00:57;2.78;;;1.02;;
23280;SDS011;11809;56.390;-3.266;2023-04-03T00:03:24;2.47;;;1.00;;
23280;SDS011;11809;56.390;-3.266;2023-04-03T00:05:51;2.10;;;0.80;;
23280;SDS011;11809;56.390;-3.266;2023-04-03T00:08:18;2.17;;;0.93;;
23280;SDS011;11809;56.390;-3.266;2023-04-03T00:10:46;1.52;;;0.90;;
23280;SDS011;11809;56.390;-3.266;2023-04-03T00:13:13;3.17;;;1.15;;
23280;SDS011;11809;56.390;-3.266;2023-04-03T00:15:41;2.42;;;1.10;;
23280;SDS011;11809;56.390;-3.266;2023-04-03T00:18:08;2.58;;;1.10;;
23280;SDS011;11809;56.390;-3.266;2023-04-03T00:20:36;3.30;;;1.00;;
23280;SDS011;11809;56.390;-3.266;2023-04-03T00:23:03;2.83;;;1.17;;
23280;SDS011;11809;56.390;-3.266;2023-04-03T00:25:30;1.30;;;0.80;;
23280;SDS011;11809;56.390;-3.266;2023-04-03T00:27:57;4.55;;;0.90;;
23280;SDS011;11809;56.390;-3.266;2023-04-03T00:30:25;1.73;;;0.95;;
23280;SDS011;11809;56.390;-3.266;2023-04-03T00:32:52;1.80;;;1.00;;
23280;SDS011;11809;56.390;-3.266;2023-04-03T00:35:20;2.60;;;1.00;;
23280;SDS011;11809;56.390;-3.266;2023-04-03T00:37:50;3.92;;;1.20;;
23280;SDS011;11809;56.390;-3.266;2023-04-03T00:40:19;2.72;;;1.15;;
23280;SDS011;11809;56.390;-3.266;2023-04-03T00:42:47;2.90;;;1.10;;
23280;SDS011;11809;56.390;-3.266;2023-04-03T00:45:28;1.48;;;0.80;;
23280;SDS011;11809;56.390;-3.266;2023-04-03T00:48:05;2.33;;;1.10;;
23280;SDS011;11809;56.390;-3.266;2023-04-03T00:50:37;3.08;;;1.00;;
23280;SDS011;11809;56.390;-3.266;2023-04-03T00:53:09;2.80;;;0.90;;
23280;SDS011;11809;56.390;-3.266;2023-04-03T00:55:41;3.72;;;1.00;;
23280;SDS011;11809;56.390;-3.266;2023-04-03T00:58:08;1.80;;;0.93;;
23280;SDS011;11809;56.390;-3.266;2023-04-03T01:00:37;2.78;;;0.90;;
23280;SDS011;11809;56.390;-3.266;2023-04-03T01:03:09;2.45;;;1.00;;
23280;SDS011;11809;56.390;-3.266;2023-04-03T01:05:36;1.58;;;0.75;;
23280;SDS011;11809;56.390;-3.266;2023-04-03T01:08:04;2.83;;;0.80;;
23280;SDS011;11809;56.390;-3.266;2023-04-03T01:10:31;2.58;;;0.80;;
23280;SDS011;11809;56.390;-3.266;2023-04-03T01:12:58;1.63;;;0.80;;
23280;SDS011;11809;56.390;-3.266;2023-04-03T01:15:27;2.30;;;0.82;;
23280;SDS011;11809;56.390;-3.266;2023-04-03T01:17:59;1.65;;;0.65;;
23280;SDS011;11809;56.390;-3.266;2023-04-03T01:25:44;3.85;;;0.80;;
23280;SDS011;11809;56.390;-3.266;2023-04-03T01:28:28;1.70;;;0.65;;
23280;SDS011;11809;56.390;-3.266;2023-04-03T01:33:46;1.70;;;0.70;;
23280;SDS011;11809;56.390;-3.266;2023-04-03T01:36:14;1.85;;;0.65;;
23280;SDS011;11809;56.390;-3.266;2023-04-03T01:38:43;1.50;;;0.70;;
23280;SDS011;11809;56.390;-3.266;2023-04-03T01:41:10;3.25;;;0.70;;
23280;SDS011;11809;56.390;-3.266;2023-04-03T01:43:37;2.33;;;0.85;;
23280;SDS011;11809;56.390;-3.266;2023-04-03T01:46:04;2.45;;;0.70;;
23280;SDS011;11809;56.390;-3.266;2023-04-03T01:48:32;1.95;;;0.80;;
23280;SDS011;11809;56.390;-3.266;2023-04-03T01:50:59;1.73;;;0.80;;
23280;SDS011;11809;56.390;-3.266;2023-04-03T01:53:26;2.78;;;0.85;;
23280;SDS011;11809;56.390;-3.266;2023-04-03T01:55:53;1.88;;;0.65;;
23280;SDS011;11809;56.390;-3.266;2023-04-03T01:58:20;2.67;;;0.70;;
23280;SDS011;11809;56.390;-3.266;2023-04-03T02:00:47;1.85;;;0.70;;
23280;SDS011;11809;56.390;-3.266;2023-04-03T02:03:14;3.90;;;0.90;;
23280;SDS011;11809;56.390;-3.266;2023-04-03T02:05:41;1.75;;;0.80;;
23280;SDS011;11809;56.390;-3.266;2023-04-03T02:08:08;2.20;;;0.70;;
23280;SDS011;11809;56.390;-3.266;2023-04-03T02:10:35;1.95;;;1.08;;
23280;SDS011;11809;56.390;-3.266;2023-04-03T02:13:03;1.70;;;0.90;;
23280;SDS011;11809;56.390;-3.266;2023-04-03T02:15:30;1.77;;;0.52;;
23280;SDS011;11809;56.390;-3.266;2023-04-03T02:17:57;2.17;;;0.77;;
23280;SDS011;11809;56.390;-3.266;2023-04-03T02:20:24;1.77;;;0.80;;
23280;SDS011;11809;56.390;-3.266;2023-04-03T02:22:51;1.05;;;0.55;;
23280;SDS011;11809;56.390;-3.266;2023-04-03T02:25:18;2.60;;;0.90;;
23280;SDS011;11809;56.390;-3.266;2023-04-03T02:27:45;2.88;;;0.68;;
23280;SDS011;11809;56.390;-3.266;2023-04-03T02:30:12;0.50;;;0.50;;
23280;SDS011;11809;56.390;-3.266;2023-04-03T02:32:41;1.38;;;0.80;;
23280;SDS011;11809;56.390;-3.266;2023-04-03T02:35:09;1.42;;;0.65;;
23280;SDS011;11809;56.390;-3.266;2023-04-03T02:37:37;1.08;;;0.63;;
23280;SDS011;11809;56.390;-3.266;2023-04-03T02:40:04;1.65;;;0.70;;
23280;SDS011;11809;56.390;-3.266;2023-04-03T02:42:32;1.83;;;0.80;;
23280;SDS011;11809;56.390;-3.266;2023-04-03T02:44:59;1.02;;;0.63;;
23280;SDS011;11809;56.390;-3.266;2023-04-03T02:47:30;1.70;;;0.60;;
23280;SDS011;11809;56.390;-3.266;2023-04-03T02:49:57;1.85;;;0.60;;
23280;SDS011;11809;56.390;-3.266;2023-04-03T02:52:24;1.50;;;0.70;;
23280;SDS011;11809;56.390;-3.266;2023-04-03T02:54:51;1.63;;;0.70;;
23280;SDS011;11809;56.390;-3.266;2023-04-03T02:57:18;1.45;;;0.77;;
23280;SDS011;11809;56.390;-3.266;2023-04-03T02:59:46;2.78;;;0.68;;
23280;SDS011;11809;56.390;-3.266;2023-04-03T03:02:13;0.70;;;0.63;;
23280;SDS011;11809;56.390;-3.266;2023-04-03T03:04:40;1.67;;;0.82;;
23280;SDS011;11809;56.390;-3.266;2023-04-03T03:07:07;1.10;;;0.77;;
23280;SDS011;11809;56.390;-3.266;2023-04-03T03:09:34;1.40;;;0.70;;
23280;SDS011;11809;56.390;-3.266;2023-04-03T03:12:01;1.67;;;0.80;;
23280;SDS011;11809;56.390;-3.266;2023-04-03T03:14:28;1.65;;;0.93;;
23280;SDS011;11809;56.390;-3.266;2023-04-03T03:16:55;0.95;;;0.60;;
23280;SDS011;11809;56.390;-3.266;2023-04-03T03:19:22;1.23;;;0.50;;
23280;SDS011;11809;56.390;-3.266;2023-04-03T03:21:48;2.47;;;0.77;;
23280;SDS011;11809;56.390;-3.266;2023-04-03T03:24:16;1.25;;;0.63;;
23280;SDS011;11809;56.390;-3.266;2023-04-03T03:26:43;1.13;;;0.75;;
23280;SDS011;11809;56.390;-3.266;2023-04-03T03:29:10;2.08;;;0.75;;
23280;SDS011;11809;56.390;-3.266;2023-04-03T03:31:37;1.63;;;0.80;;
23280;SDS011;11809;56.390;-3.266;2023-04-03T03:34:04;1.90;;;0.90;;
23280;SDS011;11809;56.390;-3.266;2023-04-03T03:36:32;0.98;;;0.63;;
23280;SDS011;11809;56.390;-3.266;2023-04-03T03:38:58;1.38;;;0.88;;
23280;SDS011;11809;56.390;-3.266;2023-04-03T03:41:25;1.35;;;0.68;;
23280;SDS011;11809;56.390;-3.266;2023-04-03T03:43:52;1.17;;;0.65;;
23280;SDS011;11809;56.390;-3.266;2023-04-03T03:46:19;1.70;;;0.80;;
23280;SDS011;11809;56.390;-3.266;2023-04-03T03:48:46;1.00;;;0.60;;
23280;SDS011;11809;56.390;-3.266;2023-04-03T03:51:13;2.17;;;0.80;;
23280;SDS011;11809;56.390;-3.266;2023-04-03T03:53:40;1.75;;;1.00;;
23280;SDS011;11809;56.390;-3.266;2023-04-03T03:56:07;1.60;;;0.75;;
23280;SDS011;11809;56.390;-3.266;2023-04-03T03:58:35;1.15;;;0.73;;
23280;SDS011;11809;56.390;-3.266;2023-04-03T04:01:03;1.15;;;0.63;;
23280;SDS011;11809;56.390;-3.266;2023-04-03T04:03:32;3.13;;;1.10;;
23280;SDS011;11809;56.390;-3.266;2023-04-03T04:05:59;1.25;;;0.70;;
23280;SDS011;11809;56.390;-3.266;2023-04-03T04:08:26;2.83;;;0.82;;
23280;SDS011;11809;56.390;-3.266;2023-04-03T04:10:54;0.90;;;0.70;;
23280;SDS011;11809;56.390;-3.266;2023-04-03T04:13:21;2.42;;;1.00;;
23280;SDS011;11809;56.390;-3.266;2023-04-03T04:15:48;1.13;;;0.80;;
23280;SDS011;11809;56.390;-3.266;2023-04-03T04:18:15;1.00;;;0.80;;
23280;SDS011;11809;56.390;-3.266;2023-04-03T04:20:42;2.22;;;0.85;;
23280;SDS011;11809;56.390;-3.266;2023-04-03T04:23:11;1.10;;;0.80;;
23280;SDS011;11809;56.390;-3.266;2023-04-03T04:25:38;2.65;;;0.70;;
23280;SDS011;11809;56.390;-3.266;2023-04-03T04:28:05;1.75;;;0.80;;
23280;SDS011;11809;56.390;-3.266;2023-04-03T04:30:32;1.73;;;0.82;;
23280;SDS011;11809;56.390;-3.266;2023-04-03T04:32:59;3.55;;;1.00;;
23280;SDS011;11809;56.390;-3.266;2023-04-03T04:35:27;1.70;;;0.82;;
23280;SDS011;11809;56.390;-3.266;2023-04-03T04:37:54;1.85;;;0.70;;
23280;SDS011;11809;56.390;-3.266;2023-04-03T04:40:21;3.83;;;0.95;;
23280;SDS011;11809;56.390;-3.266;2023-04-03T04:42:48;1.52;;;0.75;;
23280;SDS011;11809;56.390;-3.266;2023-04-03T04:45:15;1.10;;;0.82;;
23280;SDS011;11809;56.390;-3.266;2023-04-03T04:47:43;1.48;;;0.77;;
23280;SDS011;11809;56.390;-3.266;2023-04-03T04:50:10;1.55;;;0.95;;
23280;SDS011;11809;56.390;-3.266;2023-04-03T04:52:38;1.45;;;0.75;;
23280;SDS011;11809;56.390;-3.266;2023-04-03T04:55:05;1.10;;;0.90;;
23280;SDS011;11809;56.390;-3.266;2023-04-03T04:57:32;1.02;;;0.77;;
23280;SDS011;11809;56.390;-3.266;2023-04-03T05:00:00;1.38;;;0.75;;
23280;SDS011;11809;56.390;-3.266;2023-04-03T05:02:27;1.20;;;0.85;;
23280;SDS011;11809;56.390;-3.266;2023-04-03T05:04:54;1.10;;;0.80;;
23280;SDS011;11809;56.390;-3.266;2023-04-03T05:07:21;3.15;;;0.88;;
23280;SDS011;11809;56.390;-3.266;2023-04-03T05:09:49;2.28;;;0.85;;
23280;SDS011;11809;56.390;-3.266;2023-04-03T05:12:16;1.67;;;0.82;;
23280;SDS011;11809;56.390;-3.266;2023-04-03T05:14:43;1.25;;;0.88;;
23280;SDS011;11809;56.390;-3.266;2023-04-03T05:17:10;1.92;;;0.80;;
23280;SDS011;11809;56.390;-3.266;2023-04-03T05:19:37;2.17;;;0.93;;
23280;SDS011;11809;56.390;-3.266;2023-04-03T05:22:04;1.73;;;0.73;;
23280;SDS011;11809;56.390;-3.266;2023-04-03T05:24:31;0.90;;;0.70;;
23280;SDS011;11809;56.390;-3.266;2023-04-03T05:26:58;1.17;;;0.88;;
23280;SDS011;11809;56.390;-3.266;2023-04-03T05:29:25;2.53;;;1.08;;
23280;SDS011;11809;56.390;-3.266;2023-04-03T05:31:52;1.23;;;0.75;;
23280;SDS011;11809;56.390;-3.266;2023-04-03T05:34:20;1.05;;;0.73;;
23280;SDS011;11809;56.390;-3.266;2023-04-03T05:36:47;2.63;;;0.70;;
23280;SDS011;11809;56.390;-3.266;2023-04-03T05:39:14;0.70;;;0.57;;
23280;SDS011;11809;56.390;-3.266;2023-04-03T05:41:41;1.75;;;0.95;;
23280;SDS011;11809;56.390;-3.266;2023-04-03T05:44:08;2.90;;;0.90;;
23280;SDS011;11809;56.390;-3.266;2023-04-03T05:46:35;2.45;;;0.88;;
23280;SDS011;11809;56.390;-3.266;2023-04-03T05:49:02;1.35;;;0.77;;
23280;SDS011;11809;56.390;-3.266;2023-04-03T05:51:36;1.35;;;0.82;;
23280;SDS011;11809;56.390;-3.266;2023-04-03T05:54:14;4.07;;;1.10;;
23280;SDS011;11809;56.390;-3.266;2023-04-03T05:56:45;10.77;;;1.20;;
23280;SDS011;11809;56.390;-3.266;2023-04-03T05:59:12;4.38;;;1.20;;
23280;SDS011;11809;56.390;-3.266;2023-04-03T06:01:39;6.43;;;0.95;;
23280;SDS011;11809;56.390;-3.266;2023-04-03T06:04:07;11.38;;;0.70;;
23280;SDS011;11809;56.390;-3.266;2023-04-03T06:09:20;2.75;;;0.82;;
23280;SDS011;11809;56.390;-3.266;2023-04-03T06:11:48;2.47;;;0.90;;
23280;SDS011;11809;56.390;-3.266;2023-04-03T06:14:15;2.53;;;0.60;;
23280;SDS011;11809;56.390;-3.266;2023-04-03T06:16:42;4.50;;;0.75;;
23280;SDS011;11809;56.390;-3.266;2023-04-03T06:19:10;3.13;;;0.98;;
23280;SDS011;11809;56.390;-3.266;2023-04-03T06:21:38;2.53;;;1.00;;
23280;SDS011;11809;56.390;-3.266;2023-04-03T06:24:06;2.70;;;1.40;;
23280;SDS011;11809;56.390;-3.266;2023-04-03T06:26:33;2.17;;;0.82;;
23280;SDS011;11809;56.390;-3.266;2023-04-03T06:29:01;2.20;;;0.90;;
23280;SDS011;11809;56.390;-3.266;2023-04-03T06:31:29;2.47;;;0.70;;
23280;SDS011;11809;56.390;-3.266;2023-04-03T06:33:56;16.25;;;1.88;;
23280;SDS011;11809;56.390;-3.266;2023-04-03T06:36:23;12.50;;;1.58;;
23280;SDS011;11809;56.390;-3.266;2023-04-03T06:38:50;17.95;;;1.80;;
23280;SDS011;11809;56.390;-3.266;2023-04-03T06:41:18;12.52;;;1.60;;
23280;SDS011;11809;56.390;-3.266;2023-04-03T06:43:45;14.57;;;1.60;;
23280;SDS011;11809;56.390;-3.266;2023-04-03T06:46:16;10.52;;;1.58;;
23280;SDS011;11809;56.390;-3.266;2023-04-03T06:48:44;13.77;;;1.90;;
23280;SDS011;11809;56.390;-3.266;2023-04-03T06:51:18;22.77;;;1.90;;
23280;SDS011;11809;56.390;-3.266;2023-04-03T06:53:50;11.65;;;1.35;;
23280;SDS011;11809;56.390;-3.266;2023-04-03T06:56:18;33.08;;;3.05;;
23280;SDS011;11809;56.390;-3.266;2023-04-03T06:58:46;47.85;;;3.35;;
23280;SDS011;11809;56.390;-3.266;2023-04-03T07:01:14;15.18;;;1.75;;
23280;SDS011;11809;56.390;-3.266;2023-04-03T07:03:43;20.98;;;2.28;;
23280;SDS011;11809;56.390;-3.266;2023-04-03T07:06:14;14.00;;;1.98;;
23280;SDS011;11809;56.390;-3.266;2023-04-03T07:08:42;16.33;;;1.90;;
23280;SDS011;11809;56.390;-3.266;2023-04-03T07:11:11;13.82;;;1.63;;
23280;SDS011;11809;56.390;-3.266;2023-04-03T07:13:39;15.60;;;2.22;;
23280;SDS011;11809;56.390;-3.266;2023-04-03T07:16:06;33.95;;;6.95;;
23280;SDS011;11809;56.390;-3.266;2023-04-03T07:18:35;124.93;;;77.07;;
23280;SDS011;11809;56.390;-3.266;2023-04-03T07:21:03;354.77;;;250.70;;
23280;SDS011;11809;56.390;-3.266;2023-04-03T07:23:31;508.42;;;372.70;;
23280;SDS011;11809;56.390;-3.266;2023-04-03T07:25:59;258.00;;;182.25;;
23280;SDS011;11809;56.390;-3.266;2023-04-03T07:28:26;208.27;;;134.20;;
23280;SDS011;11809;56.390;-3.266;2023-04-03T07:30:58;123.38;;;85.32;;
23280;SDS011;11809;56.390;-3.266;2023-04-03T07:33:31;129.63;;;89.22;;
23280;SDS011;11809;56.390;-3.266;2023-04-03T07:35:58;136.23;;;80.22;;
23280;SDS011;11809;56.390;-3.266;2023-04-03T07:38:27;50.40;;;24.10;;
23280;SDS011;11809;56.390;-3.266;2023-04-03T07:40:54;66.75;;;32.50;;
23280;SDS011;11809;56.390;-3.266;2023-04-03T07:43:22;66.97;;;33.42;;
23280;SDS011;11809;56.390;-3.266;2023-04-03T07:45:51;90.75;;;45.92;;
23280;SDS011;11809;56.390;-3.266;2023-04-03T07:48:21;81.90;;;41.78;;
23280;SDS011;11809;56.390;-3.266;2023-04-03T07:50:49;87.18;;;39.47;;
23280;SDS011;11809;56.390;-3.266;2023-04-03T07:53:17;68.07;;;35.80;;
23280;SDS011;11809;56.390;-3.266;2023-04-03T07:55:47;59.20;;;32.20;;
23280;SDS011;11809;56.390;-3.266;2023-04-03T07:58:18;65.80;;;30.27;;
23280;SDS011;11809;56.390;-3.266;2023-04-03T08:00:45;54.65;;;27.15;;
23280;SDS011;11809;56.390;-3.266;2023-04-03T08:03:14;48.88;;;25.27;;
23280;SDS011;11809;56.390;-3.266;2023-04-03T08:05:44;46.88;;;23.88;;
23280;SDS011;11809;56.390;-3.266;2023-04-03T08:08:13;36.70;;;20.70;;
23280;SDS011;11809;56.390;-3.266;2023-04-03T08:10:50;33.65;;;19.42;;
23280;SDS011;11809;56.390;-3.266;2023-04-03T08:13:18;32.75;;;17.80;;
23280;SDS011;11809;56.390;-3.266;2023-04-03T08:15:46;32.25;;;16.42;;
23280;SDS011;11809;56.390;-3.266;2023-04-03T08:18:14;93.07;;;30.80;;
23280;SDS011;11809;56.390;-3.266;2023-04-03T08:20:42;88.78;;;28.95;;
23280;SDS011;11809;56.390;-3.266;2023-04-03T08:23:10;76.43;;;23.63;;
23280;SDS011;11809;56.390;-3.266;2023-04-03T08:25:41;88.32;;;23.38;;
23280;SDS011;11809;56.390;-3.266;2023-04-03T08:28:09;39.58;;;12.32;;
23280;SDS011;11809;56.390;-3.266;2023-04-03T08:30:40;35.00;;;8.63;;
23280;SDS011;11809;56.390;-3.266;2023-04-03T08:33:09;23.83;;;5.80;;
23280;SDS011;11809;56.390;-3.266;2023-04-03T08:35:40;53.45;;;9.48;;
23280;SDS011;11809;56.390;-3.266;2023-04-03T08:38:09;53.33;;;9.50;;
23280;SDS011;11809;56.390;-3.266;2023-04-03T08:40:37;14.45;;;3.90;;
23280;SDS011;11809;56.390;-3.266;2023-04-03T08:45:58;10.40;;;2.85;;
23280;SDS011;11809;56.390;-3.266;2023-04-03T08:48:33;12.57;;;3.25;;
23280;SDS011;11809;56.390;-3.266;2023-04-03T08:51:04;23.10;;;4.43;;
23280;SDS011;11809;56.390;-3.266;2023-04-03T08:53:44;19.17;;;5.13;;
23280;SDS011;11809;56.390;-3.266;2023-04-03T08:56:23;13.80;;;4.15;;
23280;SDS011;11809;56.390;-3.266;2023-04-03T08:58:53;12.40;;;5.00;;
23280;SDS011;11809;56.390;-3.266;2023-04-03T09:01:44;8.60;;;3.80;;
23280;SDS011;11809;56.390;-3.266;2023-04-03T09:04:15;12.85;;;4.40;;
23280;SDS011;11809;56.390;-3.266;2023-04-03T09:06:49;15.07;;;3.97;;
23280;SDS011;11809;56.390;-3.266;2023-04-03T09:09:40;13.13;;;3.97;;
23280;SDS011;11809;56.390;-3.266;2023-04-03T09:12:17;11.27;;;3.90;;
23280;SDS011;11809;56.390;-3.266;2023-04-03T09:22:57;6.10;;;3.17;;
23280;SDS011;11809;56.390;-3.266;2023-04-03T09:25:30;5.85;;;2.88;;
23280;SDS011;11809;56.390;-3.266;2023-04-03T09:28:00;5.28;;;2.75;;
23280;SDS011;11809;56.390;-3.266;2023-04-03T09:30:28;9.23;;;3.25;;
23280;SDS011;11809;56.390;-3.266;2023-04-03T09:32:56;8.40;;;2.70;;
23280;SDS011;11809;56.390;-3.266;2023-04-03T09:38:18;7.18;;;2.65;;
23280;SDS011;11809;56.390;-3.266;2023-04-03T09:40:49;7.10;;;2.40;;
23280;SDS011;11809;56.390;-3.266;2023-04-03T09:45:53;10.15;;;2.45;;
23280;SDS011;11809;56.390;-3.266;2023-04-03T09:48:22;21.33;;;3.65;;
23280;SDS011;11809;56.390;-3.266;2023-04-03T09:55:56;25.95;;;2.85;;
23280;SDS011;11809;56.390;-3.266;2023-04-03T09:58:26;18.50;;;2.55;;
23280;SDS011;11809;56.390;-3.266;2023-04-03T10:06:48;31.65;;;3.25;;
23280;SDS011;11809;56.390;-3.266;2023-04-03T10:09:22;16.10;;;2.95;;
23280;SDS011;11809;56.390;-3.266;2023-04-03T10:14:39;16.98;;;2.10;;
23280;SDS011;11809;56.390;-3.266;2023-04-03T10:20:30;32.63;;;3.90;;
23280;SDS011;11809;56.390;-3.266;2023-04-03T10:23:15;48.03;;;5.68;;
23280;SDS011;11809;56.390;-3.266;2023-04-03T10:37:12;33.92;;;4.72;;
23280;SDS011;11809;56.390;-3.266;2023-04-03T10:45:21;20.52;;;3.55;;
23280;SDS011;11809;56.390;-3.266;2023-04-03T10:48:16;32.53;;;3.50;;
23280;SDS011;11809;56.390;-3.266;2023-04-03T10:56:52;16.98;;;3.55;;
23280;SDS011;11809;56.390;-3.266;2023-04-03T10:59:37;26.67;;;4.30;;
23280;SDS011;11809;56.390;-3.266;2023-04-03T11:02:17;13.40;;;3.75;;
23280;SDS011;11809;56.390;-3.266;2023-04-03T11:04:54;15.63;;;3.53;;
23280;SDS011;11809;56.390;-3.266;2023-04-03T11:07:28;22.08;;;3.53;;
23280;SDS011;11809;56.390;-3.266;2023-04-03T11:10:03;18.45;;;4.10;;
23280;SDS011;11809;56.390;-3.266;2023-04-03T11:15:16;12.02;;;3.72;;
23280;SDS011;11809;56.390;-3.266;2023-04-03T11:17:50;14.13;;;3.60;;
23280;SDS011;11809;56.390;-3.266;2023-04-03T11:20:31;10.07;;;3.55;;
23280;SDS011;11809;56.390;-3.266;2023-04-03T11:23:01;9.25;;;3.20;;
23280;SDS011;11809;56.390;-3.266;2023-04-03T11:25:32;10.00;;;2.92;;
23280;SDS011;11809;56.390;-3.266;2023-04-03T11:28:05;14.25;;;3.40;;
23280;SDS011;11809;56.390;-3.266;2023-04-03T11:33:49;37.90;;;4.70;;
23280;SDS011;11809;56.390;-3.266;2023-04-03T11:38:56;10.80;;;2.72;;
23280;SDS011;11809;56.390;-3.266;2023-04-03T11:41:28;14.38;;;3.50;;
23280;SDS011;11809;56.390;-3.266;2023-04-03T11:44:02;13.35;;;3.30;;
23280;SDS011;11809;56.390;-3.266;2023-04-03T12:11:30;36.15;;;3.03;;
23280;SDS011;11809;56.390;-3.266;2023-04-03T12:16:33;24.88;;;3.20;;
23280;SDS011;11809;56.390;-3.266;2023-04-03T12:32:11;13.30;;;2.58;;
23280;SDS011;11809;56.390;-3.266;2023-04-03T12:37:24;41.25;;;4.55;;
23280;SDS011;11809;56.390;-3.266;2023-04-03T12:40:25;8.38;;;2.10;;
23280;SDS011;11809;56.390;-3.266;2023-04-03T12:51:16;9.73;;;2.17;;
23280;SDS011;11809;56.390;-3.266;2023-04-03T12:53:47;6.43;;;2.30;;
23280;SDS011;11809;56.390;-3.266;2023-04-03T12:56:20;11.95;;;2.13;;
23280;SDS011;11809;56.390;-3.266;2023-04-03T13:01:55;8.25;;;1.88;;
23280;SDS011;11809;56.390;-3.266;2023-04-03T13:04:24;7.82;;;2.08;;
23280;SDS011;11809;56.390;-3.266;2023-04-03T13:06:52;6.45;;;1.60;;
23280;SDS011;11809;56.390;-3.266;2023-04-03T13:11:50;35.25;;;2.92;;
23280;SDS011;11809;56.390;-3.266;2023-04-03T13:14:23;33.25;;;3.10;;
23280;SDS011;11809;56.390;-3.266;2023-04-03T13:16:52;48.72;;;3.92;;
23280;SDS011;11809;56.390;-3.266;2023-04-03T13:19:24;27.33;;;2.65;;
23280;SDS011;11809;56.390;-3.266;2023-04-03T13:24:26;12.77;;;2.42;;
23280;SDS011;11809;56.390;-3.266;2023-04-03T13:26:55;15.40;;;2.42;;
23280;SDS011;11809;56.390;-3.266;2023-04-03T13:29:33;17.20;;;2.00;;
23280;SDS011;11809;56.390;-3.266;2023-04-03T13:32:04;13.15;;;1.85;;
23280;SDS011;11809;56.390;-3.266;2023-04-03T13:34:37;39.57;;;3.30;;
23280;SDS011;11809;56.390;-3.266;2023-04-03T13:37:11;7.82;;;1.98;;
23280;SDS011;11809;56.390;-3.266;2023-04-03T13:39:56;14.57;;;2.00;;
23280;SDS011;11809;56.390;-3.266;2023-04-03T13:42:44;30.27;;;2.92;;
23280;SDS011;11809;56.390;-3.266;2023-04-03T13:45:24;37.65;;;4.22;;
23280;SDS011;11809;56.390;-3.266;2023-04-03T13:50:51;14.52;;;2.25;;
23280;SDS011;11809;56.390;-3.266;2023-04-03T13:53:33;11.25;;;2.17;;
23280;SDS011;11809;56.390;-3.266;2023-04-03T13:56:13;11.02;;;1.92;;
23280;SDS011;11809;56.390;-3.266;2023-04-03T13:58:56;9.05;;;2.35;;
23280;SDS011;11809;56.390;-3.266;2023-04-03T14:01:52;11.23;;;1.70;;
23280;SDS011;11809;56.390;-3.266;2023-04-03T14:07:11;5.35;;;1.40;;
23280;SDS011;11809;56.390;-3.266;2023-04-03T14:09:39;7.93;;;1.50;;
23280;SDS011;11809;56.390;-3.266;2023-04-03T14:12:12;10.02;;;1.80;;
23280;SDS011;11809;56.390;-3.266;2023-04-03T14:14:56;4.97;;;1.50;;
23280;SDS011;11809;56.390;-3.266;2023-04-03T14:17:25;4.40;;;1.55;;
23280;SDS011;11809;56.390;-3.266;2023-04-03T14:19:55;9.43;;;2.13;;
23280;SDS011;11809;56.390;-3.266;2023-04-03T14:22:24;4.18;;;1.60;;
23280;SDS011;11809;56.390;-3.266;2023-04-03T14:24:56;5.93;;;1.52;;
23280;SDS011;11809;56.390;-3.266;2023-04-03T14:27:29;6.57;;;1.98;;
23280;SDS011;11809;56.390;-3.266;2023-04-03T14:30:12;6.78;;;1.80;;
23280;SDS011;11809;56.390;-3.266;2023-04-03T14:32:43;8.38;;;2.08;;
23280;SDS011;11809;56.390;-3.266;2023-04-03T14:35:11;9.30;;;2.33;;
23280;SDS011;11809;56.390;-3.266;2023-04-03T14:37:40;7.18;;;2.03;;
23280;SDS011;11809;56.390;-3.266;2023-04-03T14:40:08;6.00;;;2.13;;
23280;SDS011;11809;56.390;-3.266;2023-04-03T14:42:40;8.80;;;2.20;;
23280;SDS011;11809;56.390;-3.266;2023-04-03T14:45:09;8.48;;;2.13;;
23280;SDS011;11809;56.390;-3.266;2023-04-03T14:47:42;5.85;;;2.17;;
23280;SDS011;11809;56.390;-3.266;2023-04-03T14:50:17;6.07;;;2.00;;
23280;SDS011;11809;56.390;-3.266;2023-04-03T14:52:48;4.18;;;1.98;;
23280;SDS011;11809;56.390;-3.266;2023-04-03T14:55:19;7.90;;;2.20;;
23280;SDS011;11809;56.390;-3.266;2023-04-03T14:57:48;4.63;;;2.13;;
23280;SDS011;11809;56.390;-3.266;2023-04-03T15:00:19;5.13;;;2.10;;
23280;SDS011;11809;56.390;-3.266;2023-04-03T15:02:48;20.23;;;2.67;;
23280;SDS011;11809;56.390;-3.266;2023-04-03T15:05:16;6.50;;;2.17;;
23280;SDS011;11809;56.390;-3.266;2023-04-03T15:07:48;7.82;;;2.20;;
23280;SDS011;11809;56.390;-3.266;2023-04-03T15:10:23;18.67;;;2.60;;
23280;SDS011;11809;56.390;-3.266;2023-04-03T15:12:53;8.43;;;1.90;;
23280;SDS011;11809;56.390;-3.266;2023-04-03T15:15:21;6.53;;;2.08;;
23280;SDS011;11809;56.390;-3.266;2023-04-03T15:17:53;25.98;;;3.35;;
23280;SDS011;11809;56.390;-3.266;2023-04-03T15:20:26;38.47;;;3.38;;
23280;SDS011;11809;56.390;-3.266;2023-04-03T15:22:58;14.95;;;2.05;;
23280;SDS011;11809;56.390;-3.266;2023-04-03T15:25:32;9.00;;;2.17;;
23280;SDS011;11809;56.390;-3.266;2023-04-03T15:28:22;33.08;;;3.60;;
23280;SDS011;11809;56.390;-3.266;2023-04-03T15:30:56;18.98;;;2.65;;
23280;SDS011;11809;56.390;-3.266;2023-04-03T15:33:24;7.55;;;1.73;;
23280;SDS011;11809;56.390;-3.266;2023-04-03T15:35:52;7.30;;;1.95;;
23280;SDS011;11809;56.390;-3.266;2023-04-03T15:38:32;9.90;;;2.35;;
23280;SDS011;11809;56.390;-3.266;2023-04-03T15:41:01;9.30;;;1.70;;
23280;SDS011;11809;56.390;-3.266;2023-04-03T15:43:28;19.92;;;2.33;;
23280;SDS011;11809;56.390;-3.266;2023-04-03T15:45:56;7.57;;;2.22;;
23280;SDS011;11809;56.390;-3.266;2023-04-03T15:48:26;12.50;;;2.10;;
23280;SDS011;11809;56.390;-3.266;2023-04-03T15:50:56;17.48;;;2.03;;
23280;SDS011;11809;56.390;-3.266;2023-04-03T15:53:24;10.32;;;2.03;;
23280;SDS011;11809;56.390;-3.266;2023-04-03T15:55:55;17.33;;;2.20;;
23280;SDS011;11809;56.390;-3.266;2023-04-03T15:58:26;8.32;;;2.03;;
23280;SDS011;11809;56.390;-3.266;2023-04-03T16:00:55;6.50;;;1.70;;
23280;SDS011;11809;56.390;-3.266;2023-04-03T16:03:28;30.63;;;2.28;;
23280;SDS011;11809;56.390;-3.266;2023-04-03T16:05:57;13.98;;;1.83;;
23280;SDS011;11809;56.390;-3.266;2023-04-03T16:08:26;9.93;;;1.88;;
23280;SDS011;11809;56.390;-3.266;2023-04-03T16:11:03;6.65;;;1.80;;
23280;SDS011;11809;56.390;-3.266;2023-04-03T16:13:37;5.13;;;1.52;;
23280;SDS011;11809;56.390;-3.266;2023-04-03T16:16:07;15.68;;;2.40;;
23280;SDS011;11809;56.390;-3.266;2023-04-03T16:18:35;126.15;;;8.50;;
23280;SDS011;11809;56.390;-3.266;2023-04-03T16:21:03;19.35;;;3.00;;
23280;SDS011;11809;56.390;-3.266;2023-04-03T16:23:33;18.17;;;2.65;;
23280;SDS011;11809;56.390;-3.266;2023-04-03T16:26:01;32.78;;;3.00;;
23280;SDS011;11809;56.390;-3.266;2023-04-03T16:28:28;16.92;;;2.20;;
23280;SDS011;11809;56.390;-3.266;2023-04-03T16:30:55;15.43;;;2.53;;
23280;SDS011;11809;56.390;-3.266;2023-04-03T16:33:23;38.65;;;4.05;;
23280;SDS011;11809;56.390;-3.266;2023-04-03T16:35:51;23.98;;;2.90;;
23280;SDS011;11809;56.390;-3.266;2023-04-03T16:38:18;1999.90;;;310.80;;
23280;SDS011;11809;56.390;-3.266;2023-04-03T16:40:46;435.90;;;28.50;;
23280;SDS011;11809;56.390;-3.266;2023-04-03T16:43:13;385.90;;;27.55;;
23280;SDS011;11809;56.390;-3.266;2023-04-03T16:45:41;120.68;;;10.60;;
23280;SDS011;11809;56.390;-3.266;2023-04-03T16:48:09;89.15;;;7.03;;
23280;SDS011;11809;56.390;-3.266;2023-04-03T16:50:37;81.47;;;6.82;;
23280;SDS011;11809;56.390;-3.266;2023-04-03T16:53:04;79.85;;;6.32;;
23280;SDS011;11809;56.390;-3.266;2023-04-03T16:55:35;65.03;;;5.53;;
23280;SDS011;11809;56.390;-3.266;2023-04-03T16:58:02;90.72;;;6.95;;
23280;SDS011;11809;56.390;-3.266;2023-04-03T17:00:30;64.00;;;4.47;;
23280;SDS011;11809;56.390;-3.266;2023-04-03T17:02:57;63.33;;;4.85;;